Time;durP1;ratioP1;P1;durP2;ratioP2;P2;SDS_P1;SDS_P2;PMS_P1;PMS_P2;Temp;Humidity;BMP_temperature;BMP_pressure;BME280_temperature;BME280_humidity;BME280_pressure;Samples;Min_cycle;Max_cycle;Signal;HPM_P1;HPM_P2
2022/08/18 00:01:22;;;;;;;10.10;7.93;;;;;;;24.16;59.25;100339.59;4964619;28;20042;-74
2022/08/18 00:03:50;;;;;;;9.80;7.28;;;;;;;24.14;59.78;100333.59;4980465;28;20058;-75
2022/08/18 00:06:28;;;;;;;13.30;7.60;;;;;;;24.12;59.70;100339.13;4972013;28;20046;-75
2022/08/18 00:08:57;;;;;;;11.40;7.40;;;;;;;24.10;59.84;100335.81;4958547;28;20062;-74
2022/08/18 00:11:26;;;;;;;11.77;7.97;;;;;;;24.09;59.71;100330.59;4967355;28;20057;-75
2022/08/18 00:13:53;;;;;;;9.93;7.35;;;;;;;24.07;59.52;100330.78;4978914;28;20388;-75
2022/08/18 00:16:21;;;;;;;7.60;6.85;;;;;;;24.06;59.54;100328.28;4993717;28;20069;-76
2022/08/18 00:18:48;;;;;;;11.45;7.43;;;;;;;24.05;60.72;100330.16;4963613;28;20056;-74
2022/08/18 00:21:16;;;;;;;10.18;7.70;;;;;;;24.02;60.35;100327.00;4953332;28;20049;-73
2022/08/18 00:23:44;;;;;;;11.70;7.65;;;;;;;23.98;60.66;100327.34;5000480;28;20051;-73
2022/08/18 00:26:11;;;;;;;11.13;7.63;;;;;;;23.97;60.13;100331.06;4977328;28;20120;-74
2022/08/18 00:28:38;;;;;;;8.90;7.72;;;;;;;23.95;60.61;100325.03;5001935;28;20416;-74
2022/08/18 00:31:05;;;;;;;8.30;6.90;;;;;;;23.93;60.17;100329.75;4994793;28;20042;-74
2022/08/18 00:33:33;;;;;;;9.63;7.90;;;;;;;23.92;60.49;100321.88;4982118;28;20054;-74
2022/08/18 00:36:00;;;;;;;8.18;7.13;;;;;;;23.91;59.94;100323.75;4957063;28;20478;-75
2022/08/18 00:38:27;;;;;;;8.43;7.50;;;;;;;23.88;60.28;100321.41;4990988;28;20082;-74
2022/08/18 00:40:55;;;;;;;9.40;7.38;;;;;;;23.87;59.70;100311.69;4995212;28;20415;-74
2022/08/18 00:43:38;;;;;;;12.48;7.22;;;;;;;23.87;60.31;100310.84;4960139;28;20069;-75
2022/08/18 00:46:07;;;;;;;9.70;7.97;;;;;;;23.86;60.41;100312.69;4979677;28;20061;-74
2022/08/18 00:48:35;;;;;;;10.30;7.28;;;;;;;23.82;60.20;100314.09;4975695;28;20393;-75
2022/08/18 00:51:07;;;;;;;8.52;7.72;;;;;;;23.82;59.88;100313.25;4972180;28;20053;-75
2022/08/18 00:53:40;;;;;;;9.07;7.47;;;;;;;23.80;60.08;100315.28;4994915;28;20056;-75
2022/08/18 00:56:12;;;;;;;7.93;7.13;;;;;;;23.79;59.89;100309.09;4957137;28;20138;-73
2022/08/18 00:58:44;;;;;;;13.25;7.95;;;;;;;23.77;60.82;100310.28;4955692;28;20046;-73
2022/08/18 01:01:13;;;;;;;10.90;7.75;;;;;;;23.74;60.12;100306.13;4972672;28;20045;-75
2022/08/18 01:03:42;;;;;;;10.52;7.05;;;;;;;23.72;60.20;100308.97;4977646;28;20050;-75
2022/08/18 01:06:31;;;;;;;15.32;7.45;;;;;;;23.72;60.15;100303.59;4971118;28;20052;-74
2022/08/18 01:08:58;;;;;;;13.13;8.25;;;;;;;23.70;59.87;100300.28;4976669;28;20047;-74
2022/08/18 01:11:26;;;;;;;8.68;7.63;;;;;;;23.68;60.13;100301.44;4955581;28;20046;-75
2022/08/18 01:13:53;;;;;;;8.63;7.70;;;;;;;23.67;59.94;100294.41;4961014;28;20058;-74
2022/08/18 01:22:29;;;;;;;9.27;8.00;;;;;;;23.62;60.78;100296.78;4990146;28;20073;-73
2022/08/18 01:27:44;;;;;;;8.80;7.90;;;;;;;23.56;60.88;100298.38;4985246;28;20065;-75
2022/08/18 01:30:15;;;;;;;8.52;7.72;;;;;;;23.55;60.92;100302.06;4974265;28;20093;-74
2022/08/18 01:32:44;;;;;;;8.73;7.57;;;;;;;23.53;60.72;100298.72;4980014;28;20061;-75
2022/08/18 01:35:14;;;;;;;13.70;8.68;;;;;;;23.54;60.78;100299.56;4990341;28;20513;-75
2022/08/18 01:37:42;;;;;;;10.60;8.38;;;;;;;23.53;60.72;100303.25;4960028;28;20058;-75
2022/08/18 01:40:11;;;;;;;10.02;7.72;;;;;;;23.53;60.65;100297.88;4976469;28;20049;-74
2022/08/18 01:43:02;;;;;;;10.75;8.48;;;;;;;23.52;60.76;100298.91;4973107;28;20055;-75
2022/08/18 01:45:32;;;;;;;11.65;7.50;;;;;;;23.52;60.35;100297.06;4966970;28;20057;-74
2022/08/18 01:47:59;;;;;;;13.35;8.45;;;;;;;23.52;60.38;100291.69;4960885;28;20062;-75
2022/08/18 01:50:28;;;;;;;8.57;7.78;;;;;;;23.52;60.61;100290.84;4958553;28;20053;-75
2022/08/18 01:52:55;;;;;;;12.10;8.70;;;;;;;23.50;60.28;100289.19;4979978;28;20133;-74
2022/08/18 01:55:25;;;;;;;10.07;7.57;;;;;;;23.48;60.46;100290.38;4995909;28;20038;-75
2022/08/18 01:57:53;;;;;;;10.35;7.70;;;;;;;23.45;60.60;100282.66;4963893;28;20505;-74
2022/08/18 02:00:21;;;;;;;9.82;8.05;;;;;;;23.43;60.13;100277.50;4974391;28;20050;-74
2022/08/18 02:02:50;;;;;;;11.05;7.45;;;;;;;23.42;60.23;100280.38;4965570;28;20049;-74
2022/08/18 02:05:33;;;;;;;10.27;7.50;;;;;;;23.40;60.20;100285.06;4976753;28;20531;-74
2022/08/18 02:08:00;;;;;;;10.63;7.82;;;;;;;23.37;60.14;100278.22;4973294;28;20058;-75
2022/08/18 02:10:27;;;;;;;9.63;8.10;;;;;;;23.35;59.85;100274.88;4961686;28;20097;-75
2022/08/18 02:12:54;;;;;;;9.25;7.85;;;;;;;23.33;59.93;100266.19;4976692;28;20046;-75
2022/08/18 02:15:22;;;;;;;12.02;7.90;;;;;;;23.31;60.12;100270.88;4995341;28;20052;-74
2022/08/18 02:17:49;;;;;;;8.80;7.88;;;;;;;23.29;60.00;100262.19;4971310;28;20054;-76
2022/08/18 02:20:17;;;;;;;9.65;7.72;;;;;;;23.26;60.29;100267.91;4977669;28;20134;-75
2022/08/18 02:22:46;;;;;;;15.25;8.52;;;;;;;23.24;59.94;100259.22;4978090;28;20053;-74
2022/08/18 02:25:14;;;;;;;11.32;9.05;;;;;;;23.22;60.60;100262.06;4977854;28;20142;-74
2022/08/18 02:27:41;;;;;;;9.93;8.55;;;;;;;23.21;61.13;100264.94;4991278;28;20069;-74
2022/08/18 02:30:12;;;;;;;9.63;8.00;;;;;;;23.16;60.66;100262.78;4992555;28;20046;-74
2022/08/18 02:32:40;;;;;;;11.52;8.65;;;;;;;23.17;60.33;100266.31;4987240;28;20039;-75
2022/08/18 02:35:10;;;;;;;9.35;8.25;;;;;;;23.15;60.74;100263.81;4973176;28;20064;-73
2022/08/18 02:37:39;;;;;;;14.30;8.38;;;;;;;23.14;60.44;100263.97;4984853;28;20513;-75
2022/08/18 02:40:11;;;;;;;11.20;8.57;;;;;;;23.13;60.40;100265.00;4996238;28;20050;-75
2022/08/18 02:42:42;;;;;;;12.40;7.50;;;;;;;23.11;60.24;100259.00;4977218;28;20123;-75
2022/08/18 02:45:11;;;;;;;10.15;7.95;;;;;;;23.09;60.25;100261.84;4958459;28;20077;-74
2022/08/18 02:47:39;;;;;;;10.65;8.13;;;;;;;23.07;60.69;100266.56;4966146;28;20430;-74
2022/08/18 02:50:09;;;;;;;9.90;8.43;;;;;;;23.04;60.96;100264.22;4991507;28;20056;-75
2022/08/18 02:52:37;;;;;;;9.57;8.00;;;;;;;23.02;60.77;100266.28;4999819;28;20049;-75
2022/08/18 02:55:07;;;;;;;10.38;8.60;;;;;;;22.99;61.22;100270.13;4963605;28;20049;-75
2022/08/18 02:57:34;;;;;;;9.77;8.63;;;;;;;22.97;61.23;100268.66;4961936;28;20054;-74
2022/08/18 03:00:03;;;;;;;13.23;8.52;;;;;;;22.94;61.42;100269.84;4975079;28;20050;-75
2022/08/18 03:02:31;;;;;;;9.48;8.57;;;;;;;22.92;61.31;100258.47;4992849;28;20042;-75
2022/08/18 03:04:58;;;;;;;10.25;8.75;;;;;;;22.91;61.29;100262.13;4981171;28;20584;-75
2022/08/18 03:07:25;;;;;;;11.65;8.50;;;;;;;22.89;60.82;100264.19;4975256;28;20054;-74
2022/08/18 03:09:52;;;;;;;10.45;8.55;;;;;;;22.89;61.33;100266.88;4989327;28;20400;-74
2022/08/18 03:12:19;;;;;;;9.27;8.30;;;;;;;22.86;61.04;100260.97;4987414;28;20050;-75
2022/08/18 03:14:47;;;;;;;9.27;8.00;;;;;;;22.83;61.60;100264.88;4995488;28;20056;-74
2022/08/18 03:17:14;;;;;;;15.70;8.68;;;;;;;22.81;62.30;100266.88;4977945;28;20048;-75
2022/08/18 03:19:44;;;;;;;11.63;8.57;;;;;;;22.78;62.25;100266.41;4981467;28;20050;-74
2022/08/18 03:22:14;;;;;;;11.85;8.25;;;;;;;22.74;62.10;100269.47;4972933;28;20132;-74
2022/08/18 03:24:56;;;;;;;13.25;8.38;;;;;;;22.71;62.37;100271.66;4961132;28;20069;-75
2022/08/18 03:27:24;;;;;;;14.57;8.75;;;;;;;22.69;62.49;100273.66;4999110;28;20058;-74
2022/08/18 03:29:51;;;;;;;9.80;8.75;;;;;;;22.66;62.59;100280.25;4983568;28;20046;-75
2022/08/18 03:32:18;;;;;;;9.18;8.18;;;;;;;22.63;62.61;100280.59;4979232;28;20079;-75
2022/08/18 03:34:45;;;;;;;9.57;8.57;;;;;;;22.61;62.49;100271.91;5001802;28;20057;-74
2022/08/18 03:37:14;;;;;;;10.05;8.55;;;;;;;22.59;62.59;100275.75;4965676;28;20068;-73
2022/08/18 03:39:42;;;;;;;10.35;9.07;;;;;;;22.56;62.59;100279.66;4979130;28;20060;-73
2022/08/18 03:42:09;;;;;;;9.70;8.57;;;;;;;22.54;63.35;100278.97;4981292;28;20145;-73
2022/08/18 03:44:36;;;;;;;10.52;8.02;;;;;;;22.53;63.06;100279.97;5003643;23;20072;-57
2022/08/18 03:47:08;;;;;;;14.82;9.27;;;;;;;22.52;63.35;100280.16;4994299;28;20758;-57
2022/08/18 03:49:36;;;;;;;9.20;8.02;;;;;;;22.48;62.89;100279.69;4986346;28;20487;-57
2022/08/18 03:52:07;;;;;;;10.18;8.10;;;;;;;22.46;63.60;100279.00;4982755;28;20375;-54
2022/08/18 03:54:35;;;;;;;11.23;8.77;;;;;;;22.44;63.73;100286.41;4999344;28;20050;-59
2022/08/18 03:57:02;;;;;;;11.98;9.30;;;;;;;22.42;63.43;100289.25;4986262;28;20492;-58
2022/08/18 03:59:30;;;;;;;10.52;8.85;;;;;;;22.40;64.38;100293.97;4984889;28;20049;-56
2022/08/18 04:01:58;;;;;;;12.60;8.45;;;;;;;22.38;63.93;100295.13;4988731;28;20054;-57
2022/08/18 04:04:27;;;;;;;10.15;8.75;;;;;;;22.36;64.08;100289.94;4998147;28;20046;-54
2022/08/18 04:06:58;;;;;;;15.20;9.02;;;;;;;22.35;63.88;100290.97;4991707;28;20638;-58
2022/08/18 04:09:28;;;;;;;11.43;8.85;;;;;;;22.36;64.05;100298.00;4989270;28;20074;-56
2022/08/18 04:11:56;;;;;;;11.45;9.13;;;;;;;22.36;64.63;100299.84;4994909;28;20061;-58
2022/08/18 04:14:34;;;;;;;12.40;9.15;;;;;;;22.35;64.79;100296.34;4995967;28;20061;-56
2022/08/18 04:17:01;;;;;;;10.80;9.00;;;;;;;22.35;64.80;100303.56;4997043;28;20054;-54
2022/08/18 04:19:29;;;;;;;11.98;8.65;;;;;;;22.34;64.82;100305.41;4995668;28;20051;-58
2022/08/18 04:21:57;;;;;;;13.05;9.07;;;;;;;22.36;64.40;100310.56;4999434;28;20145;-56
2022/08/18 04:24:26;;;;;;;11.35;9.02;;;;;;;22.37;64.32;100309.56;4996394;28;20050;-50
2022/08/18 04:26:58;;;;;;;16.70;9.43;;;;;;;22.39;64.33;100300.34;4993757;28;20057;-55
2022/08/18 04:29:25;;;;;;;10.77;9.30;;;;;;;22.42;63.79;100304.50;4997866;28;20056;-54
2022/08/18 04:31:52;;;;;;;11.10;9.23;;;;;;;22.44;64.11;100303.34;4995633;28;20057;-52
2022/08/18 04:34:21;;;;;;;13.63;9.40;;;;;;;22.46;63.73;100289.72;4988420;28;20375;-53
2022/08/18 04:36:52;;;;;;;13.50;10.38;;;;;;;22.48;63.83;100299.28;4997511;28;20093;-51
2022/08/18 04:39:20;;;;;;;11.77;9.40;;;;;;;22.54;63.53;100299.59;4989746;28;20062;-60
2022/08/18 04:41:48;;;;;;;11.00;8.73;;;;;;;22.57;63.65;100297.41;4992019;28;20133;-54
2022/08/18 04:44:16;;;;;;;11.35;8.63;;;;;;;22.62;63.88;100295.03;4991542;28;20066;-54
2022/08/18 04:46:46;;;;;;;11.30;9.05;;;;;;;22.69;63.88;100295.13;4988445;28;20130;-58
2022/08/18 04:49:15;;;;;;;11.25;8.70;;;;;;;22.73;63.26;100304.50;4985263;28;20164;-58
2022/08/18 04:54:51;;;;;;;10.50;9.48;;;;;;;22.79;63.32;100305.66;4992405;28;20050;-53
2022/08/18 04:57:20;;;;;;;12.00;8.55;;;;;;;22.82;63.19;100294.56;4985987;28;20086;-59
2022/08/18 04:59:49;;;;;;;11.48;9.10;;;;;;;22.86;62.73;100299.38;4992538;28;20058;-56
2022/08/18 05:02:17;;;;;;;11.15;9.45;;;;;;;22.89;62.81;100301.75;4996817;28;20473;-58
2022/08/18 05:04:48;;;;;;;13.38;9.23;;;;;;;22.94;62.63;100303.91;4993481;28;20541;-56
2022/08/18 05:07:21;;;;;;;11.02;9.23;;;;;;;22.97;62.67;100308.94;4988700;28;20057;-59
2022/08/18 05:09:48;;;;;;;11.45;9.63;;;;;;;23.03;62.34;100313.56;4992265;28;20062;-57
2022/08/18 05:12:16;;;;;;;10.05;8.38;;;;;;;23.09;62.30;100318.22;4996240;28;20050;-54
2022/08/18 05:14:44;;;;;;;13.63;9.23;;;;;;;23.14;62.14;100309.63;4993617;28;20069;-55
2022/08/18 05:17:13;;;;;;;16.45;10.40;;;;;;;23.18;61.93;100316.31;4984183;28;20058;-52
2022/08/18 05:19:42;;;;;;;11.93;9.00;;;;;;;23.20;61.96;100312.44;4995210;28;20728;-55
2022/08/18 05:22:16;;;;;;;13.32;9.18;;;;;;;23.25;61.73;100306.53;4992875;28;20057;-53
2022/08/18 05:24:44;;;;;;;13.60;9.57;;;;;;;23.30;61.55;100312.19;4992074;28;20047;-55
2022/08/18 05:27:12;;;;;;;11.07;9.02;;;;;;;23.36;61.21;100314.16;5001777;28;20046;-55
2022/08/18 05:29:39;;;;;;;11.75;9.75;;;;;;;23.44;60.59;100318.63;4997025;28;20077;-56
2022/08/18 05:32:12;;;;;;;10.40;8.70;;;;;;;23.50;60.65;100323.25;4994898;28;20057;-56
2022/08/18 05:35:06;;;;;;;12.82;10.07;;;;;;;23.58;60.20;100323.19;4990943;28;20065;-58
2022/08/18 05:38:03;;;;;;;12.80;9.10;;;;;;;23.62;60.04;100321.81;4982574;28;20050;-56
2022/08/18 05:40:30;;;;;;;12.27;9.63;;;;;;;23.66;59.67;100325.84;4979173;28;20484;-57
2022/08/18 05:42:58;;;;;;;11.30;9.30;;;;;;;23.72;59.53;100319.72;4996282;28;20576;-55
2022/08/18 05:45:26;;;;;;;15.43;10.30;;;;;;;23.77;59.42;100323.72;4991321;28;20046;-55
2022/08/18 05:47:58;;;;;;;11.85;9.45;;;;;;;23.85;59.11;100320.94;4994393;28;20415;-56
2022/08/18 05:50:28;;;;;;;10.75;9.27;;;;;;;23.89;58.99;100327.63;4986300;28;20518;-55
2022/08/18 05:53:05;;;;;;;14.38;8.80;;;;;;;23.96;58.98;100326.72;4998616;28;20045;-55
2022/08/18 05:58:47;;;;;;;9.70;8.63;;;;;;;24.15;58.94;100330.69;4987803;28;20507;-56
2022/08/18 06:01:30;;;;;;;9.88;8.35;;;;;;;24.26;58.71;100337.47;4996378;28;20417;-54
2022/08/18 06:04:04;;;;;;;10.25;9.27;;;;;;;24.37;58.70;100330.81;4993743;28;20050;-54
2022/08/18 06:06:31;;;;;;;12.10;8.63;;;;;;;24.43;58.65;100335.44;4988722;28;20059;-55
2022/08/18 06:09:26;;;;;;;13.15;9.77;;;;;;;24.51;58.14;100340.72;4987448;28;20089;-56
2022/08/18 06:12:03;;;;;;;12.10;9.45;;;;;;;24.62;57.65;100334.00;4995923;28;20069;-57
2022/08/18 06:14:30;;;;;;;14.43;12.82;;;;;;;24.70;57.50;100334.72;4992757;28;20526;-53
2022/08/18 06:17:03;;;;;;;18.27;14.68;;;;;;;24.88;56.99;100330.78;4985165;28;20065;-57
2022/08/18 06:19:48;;;;;;;16.23;13.98;;;;;;;25.03;57.08;100339.63;4994475;28;20125;-58
2022/08/18 06:22:26;;;;;;;22.70;12.02;;;;;;;25.16;56.39;100347.88;4991987;28;20050;-56
2022/08/18 06:25:54;;;;;;;11.82;10.55;;;;;;;25.33;55.68;100355.72;4991302;28;20248;-57
2022/08/18 06:28:21;;;;;;;14.20;10.30;;;;;;;25.16;54.96;100374.81;4971651;28;20042;-53
2022/08/18 06:31:01;;;;;;;18.02;10.43;;;;;;;24.97;55.35;100373.56;4997741;28;20058;-54
2022/08/18 06:33:41;;;;;;;15.52;10.40;;;;;;;24.93;54.70;100361.50;4987018;28;20483;-55
2022/08/18 06:36:29;;;;;;;16.95;9.77;;;;;;;25.09;54.44;100359.66;5003398;23;20134;-60
2022/08/18 06:39:15;;;;;;;;;;;;;;;25.26;53.89;100361.03;4966173;28;20066;-60
2022/08/18 06:41:47;;;;;;;18.60;11.05;;;;;;;25.36;53.71;100361.56;4958335;28;19982;-60
2022/08/18 06:44:44;;;;;;;15.10;9.30;;;;;;;25.53;53.93;100359.41;4957738;28;20047;-60
2022/08/18 06:47:45;;;;;;;15.25;11.13;;;;;;;25.67;53.41;100346.91;4953296;28;20137;-61
2022/08/18 06:50:30;;;;;;;12.43;9.60;;;;;;;25.74;52.92;100359.38;4961235;28;20059;-60
2022/08/18 06:53:06;;;;;;;21.52;10.07;;;;;;;25.87;52.93;100355.16;4952512;28;20050;-59
2022/08/18 06:55:53;;;;;;;13.68;9.55;;;;;;;25.92;52.74;100347.31;4959406;28;20050;-59
2022/08/18 06:58:24;;;;;;;12.68;9.45;;;;;;;25.99;52.81;100350.91;4962433;28;20146;-60
2022/08/18 07:00:51;;;;;;;14.05;10.32;;;;;;;26.07;51.82;100360.69;4956070;28;20058;-60
2022/08/18 07:03:34;;;;;;;20.90;10.73;;;;;;;26.07;52.50;100363.38;4955340;28;20070;-60
2022/08/18 07:06:24;;;;;;;13.00;9.85;;;;;;;26.14;52.00;100361.56;4954612;28;20538;-62
2022/08/18 07:08:53;;;;;;;15.88;11.20;;;;;;;26.17;51.67;100363.88;4957196;28;20563;-57
2022/08/18 07:11:21;;;;;;;15.48;10.05;;;;;;;26.13;51.44;100373.41;4960058;28;20575;-61
2022/08/18 07:13:51;;;;;;;10.38;9.35;;;;;;;26.23;51.74;100373.88;4961229;28;20055;-60
2022/08/18 07:16:38;;;;;;;13.07;9.40;;;;;;;26.29;51.17;100366.84;4950318;28;20052;-61
2022/08/18 07:19:28;;;;;;;11.98;9.70;;;;;;;26.31;50.95;100362.09;4960173;28;20057;-58
2022/08/18 07:22:16;;;;;;;12.52;9.35;;;;;;;26.46;51.02;100357.41;4957657;28;20046;-60
2022/08/18 07:24:49;;;;;;;13.00;10.00;;;;;;;26.55;50.50;100363.47;4962318;28;20397;-60
2022/08/18 07:27:22;;;;;;;16.67;8.95;;;;;;;26.62;50.47;100359.78;4951744;28;20062;-61
2022/08/18 07:30:04;;;;;;;13.80;9.65;;;;;;;26.73;50.41;100356.47;4959711;28;20055;-60
2022/08/18 07:32:38;;;;;;;11.23;8.85;;;;;;;26.82;50.28;100351.72;4959768;28;20058;-61
2022/08/18 07:35:07;;;;;;;17.83;9.95;;;;;;;26.83;50.17;100352.56;4953272;28;20044;-61
2022/08/18 07:37:44;;;;;;;16.23;9.32;;;;;;;26.85;50.79;100361.31;4951670;28;20059;-61
2022/08/18 07:40:50;;;;;;;14.63;10.07;;;;;;;26.81;51.00;100358.19;4949470;28;20447;-59
2022/08/18 07:43:26;;;;;;;;;;;;;;;26.75;50.38;100356.28;4907527;29;20055;-60
2022/08/18 07:46:07;;;;;;;14.98;9.82;;;;;;;26.87;50.05;100360.06;4954398;28;20390;-58
2022/08/18 07:48:34;;;;;;;15.30;9.68;;;;;;;27.04;49.77;100357.00;4954254;28;20062;-60
2022/08/18 07:51:42;;;;;;;11.02;9.85;;;;;;;26.96;50.00;100358.84;4960185;28;20525;-60
2022/08/18 07:54:22;;;;;;;14.27;9.67;;;;;;;27.12;49.44;100368.47;4960525;28;20067;-61
2022/08/18 07:57:18;;;;;;;18.30;9.98;;;;;;;27.21;49.47;100364.53;4950320;28;20047;-61
2022/08/18 07:59:52;;;;;;;13.82;8.82;;;;;;;27.34;49.21;100363.72;4956509;28;20062;-55
2022/08/18 08:02:45;;;;;;;15.25;9.43;;;;;;;27.43;49.09;100367.91;4960861;28;20061;-57
2022/08/18 08:05:54;;;;;;;20.73;10.65;;;;;;;27.48;49.18;100376.22;4947725;28;20562;-60
2022/08/18 08:08:44;;;;;;;11.65;8.60;;;;;;;27.58;49.00;100377.69;4941916;28;20043;-59
2022/08/18 08:11:29;;;;;;;13.60;10.38;;;;;;;27.59;48.26;100377.47;4974783;28;20054;-62
2022/08/18 08:14:17;;;;;;;14.13;9.32;;;;;;;27.63;48.42;100383.28;4958878;28;20058;-60
2022/08/18 08:17:25;;;;;;;12.95;10.10;;;;;;;27.68;48.38;100388.91;4953222;28;20053;-60
2022/08/18 08:19:56;;;;;;;15.15;9.73;;;;;;;27.83;48.13;100386.00;4946942;28;20059;-60
2022/08/18 08:22:36;;;;;;;14.93;10.40;;;;;;;27.95;47.80;100390.59;4954355;28;20428;-59
2022/08/18 08:25:24;;;;;;;19.67;10.48;;;;;;;27.97;47.22;100385.81;4958079;28;20146;-61
2022/08/18 08:28:34;;;;;;;13.63;9.57;;;;;;;28.03;47.41;100384.13;4959875;28;20049;-61
2022/08/18 08:31:07;;;;;;;15.07;9.65;;;;;;;28.06;47.01;100389.13;4952288;28;20059;-60
2022/08/18 08:34:06;;;;;;;12.25;9.93;;;;;;;28.24;46.97;100383.06;4957284;28;20077;-59
2022/08/18 08:36:38;;;;;;;16.02;10.88;;;;;;;28.31;46.94;100383.84;4959216;28;20054;-61
2022/08/18 08:39:20;;;;;;;10.57;9.15;;;;;;;28.45;46.73;100387.38;4951306;28;20086;-58
2022/08/18 08:41:53;;;;;;;12.55;9.90;;;;;;;28.62;46.31;100396.72;4961782;28;20082;-61
2022/08/18 08:44:59;;;;;;;15.02;9.25;;;;;;;28.76;46.01;100394.78;4957591;28;20059;-59
2022/08/18 08:47:35;;;;;;;16.77;10.15;;;;;;;28.77;46.05;100385.59;4950451;28;20051;-60
2022/08/18 08:50:14;;;;;;;18.77;10.95;;;;;;;28.80;45.74;100393.31;4956768;28;20050;-59
2022/08/18 08:53:05;;;;;;;20.02;10.90;;;;;;;28.87;45.49;100393.28;4956831;28;20142;-57
2022/08/18 08:55:35;;;;;;;15.02;9.45;;;;;;;29.08;45.02;100394.84;4952360;28;20062;-60
2022/08/18 08:58:27;;;;;;;15.45;10.55;;;;;;;29.18;44.94;100392.50;4957354;28;20054;-61
2022/08/18 09:00:55;;;;;;;19.48;10.50;;;;;;;29.07;44.44;100388.59;4960745;28;20058;-60
2022/08/18 09:03:38;;;;;;;18.70;9.95;;;;;;;29.13;44.86;100390.44;4954527;28;20057;-60
2022/08/18 09:06:15;;;;;;;16.77;9.45;;;;;;;29.35;45.12;100387.38;4948794;28;20059;-58
2022/08/18 09:08:54;;;;;;;16.17;9.63;;;;;;;29.48;44.36;100379.97;4956597;28;20051;-61
2022/08/18 09:11:47;;;;;;;14.07;9.50;;;;;;;29.63;43.98;100381.56;4958207;28;20059;-60
2022/08/18 09:14:32;;;;;;;13.48;8.65;;;;;;;29.69;43.35;100378.81;4953908;28;20051;-58
2022/08/18 09:17:30;;;;;;;16.42;8.80;;;;;;;29.71;42.81;100373.16;4954634;28;20059;-59
2022/08/18 09:20:21;;;;;;;14.57;8.40;;;;;;;29.75;42.41;100364.34;4958512;28;20459;-58
2022/08/18 09:22:53;;;;;;;14.40;9.48;;;;;;;29.90;42.83;100363.16;4952246;28;20074;-59
2022/08/18 09:25:50;;;;;;;13.88;8.77;;;;;;;30.12;43.05;100358.97;4963576;28;20082;-57
2022/08/18 09:28:41;;;;;;;13.15;8.48;;;;;;;30.37;42.47;100358.94;4957846;28;20066;-59
2022/08/18 09:31:08;;;;;;;11.93;8.95;;;;;;;30.67;42.44;100358.19;4951293;28;20059;-60
2022/08/18 09:33:43;;;;;;;17.08;9.75;;;;;;;30.96;41.64;100353.81;4959147;28;20055;-59
2022/08/18 09:36:28;;;;;;;;;;;;;;;31.15;40.80;100357.31;4948016;28;20139;-59
2022/08/18 09:41:58;;;;;;;12.52;9.85;;;;;;;31.48;39.63;100352.22;4947991;28;20055;-58
2022/08/18 09:44:46;;;;;;;18.40;10.20;;;;;;;31.60;39.18;100348.66;4956680;28;20047;-59
2022/08/18 09:47:19;;;;;;;15.50;9.80;;;;;;;31.80;39.28;100351.06;4951242;28;20051;-61
2022/08/18 09:49:55;;;;;;;14.50;9.30;;;;;;;31.94;39.48;100347.06;4955636;28;20059;-60
2022/08/18 09:52:25;;;;;;;13.25;8.65;;;;;;;32.09;39.24;100343.84;4956263;28;20122;-61
2022/08/18 09:54:59;;;;;;;15.63;9.30;;;;;;;32.18;38.76;100340.50;4953210;28;20047;-62
2022/08/18 09:57:31;;;;;;;15.98;9.63;;;;;;;32.26;37.99;100333.88;4955620;28;20047;-61
2022/08/18 10:00:13;;;;;;;12.88;9.85;;;;;;;32.28;38.43;100338.00;4950744;28;20073;-60
2022/08/18 10:02:40;;;;;;;21.52;10.85;;;;;;;32.32;37.97;100340.25;4962617;28;20058;-61
2022/08/18 10:05:14;;;;;;;16.70;10.82;;;;;;;32.18;37.49;100337.78;4952463;28;20050;-61
2022/08/18 10:08:00;;;;;;;15.38;9.73;;;;;;;32.24;37.95;100327.81;4941302;28;20531;-61
2022/08/18 10:10:43;;;;;;;16.35;9.38;;;;;;;32.45;37.74;100329.09;4953472;28;20054;-61
2022/08/18 10:13:53;;;;;;;14.10;8.63;;;;;;;32.58;37.40;100325.28;4955905;28;20055;-60
2022/08/18 10:16:58;;;;;;;10.98;8.00;;;;;;;32.69;37.18;100322.53;4945604;28;20421;-61
2022/08/18 10:20:04;;;;;;;11.73;7.97;;;;;;;32.80;35.97;100326.25;4953191;28;20067;-60
2022/08/18 10:22:42;;;;;;;14.18;8.18;;;;;;;32.73;36.21;100326.38;4955110;28;20059;-61
2022/08/18 10:25:10;;;;;;;22.27;10.05;;;;;;;32.89;35.21;100316.59;4958173;28;20051;-61
2022/08/18 10:27:53;;;;;;;15.98;8.35;;;;;;;33.09;35.59;100321.63;4955377;28;20055;-59
2022/08/18 10:30:33;;;;;;;27.25;10.50;;;;;;;33.06;35.50;100322.13;4958255;28;20055;-61
2022/08/18 10:33:57;;;;;;;18.63;9.45;;;;;;;32.88;35.90;100328.59;4958838;28;20066;-60
2022/08/18 10:36:50;;;;;;;22.13;10.30;;;;;;;32.94;35.96;100322.19;4950370;28;20043;-62
2022/08/18 10:39:22;;;;;;;9.18;8.23;;;;;;;33.21;36.14;100321.56;4954972;28;20244;-61
2022/08/18 10:41:59;;;;;;;24.98;9.75;;;;;;;33.51;35.60;100324.81;4952422;28;20539;-60
2022/08/18 10:44:29;;;;;;;19.67;8.88;;;;;;;33.55;34.15;100327.88;4957978;28;20054;-61
2022/08/18 10:46:58;;;;;;;20.33;10.40;;;;;;;33.67;34.22;100325.03;4951044;28;20062;-63
2022/08/18 10:49:27;;;;;;;13.55;9.32;;;;;;;33.61;33.88;100324.16;4958896;28;20508;-61
2022/08/18 10:52:22;;;;;;;20.15;9.00;;;;;;;33.57;34.34;100320.25;4952520;28;20063;-61
2022/08/18 10:54:49;;;;;;;;;;;;;;;33.70;33.62;100316.38;4952646;28;20051;-60
2022/08/18 10:57:52;;;;;;;19.70;8.95;;;;;;;33.71;33.67;100316.09;4948534;28;19949;-61
2022/08/18 11:00:20;;;;;;;13.25;8.48;;;;;;;33.64;34.31;100317.34;4950040;28;20419;-61
2022/08/18 11:03:09;;;;;;;12.05;7.70;;;;;;;33.78;34.02;100310.47;4961109;28;20090;-61
2022/08/18 11:06:05;;;;;;;15.93;8.52;;;;;;;34.07;32.88;100310.34;4944341;28;20055;-62
2022/08/18 11:08:44;;;;;;;12.05;8.60;;;;;;;33.99;32.85;100308.88;4954946;28;20054;-60
2022/08/18 11:11:13;;;;;;;14.40;8.23;;;;;;;34.25;32.88;100305.38;4939906;28;20057;-61
2022/08/18 11:14:08;;;;;;;13.65;8.65;;;;;;;34.62;32.92;100290.25;4957667;28;20066;-61
2022/08/18 11:16:35;;;;;;;16.27;9.63;;;;;;;34.89;32.73;100298.44;4965987;28;20054;-61
2022/08/18 11:19:15;;;;;;;14.15;9.35;;;;;;;34.98;31.31;100299.66;4960555;28;20074;-61
2022/08/18 11:21:45;;;;;;;17.60;8.45;;;;;;;34.62;31.48;100299.28;4953947;28;20074;-61
2022/08/18 11:24:34;;;;;;;14.55;8.43;;;;;;;34.72;31.41;100296.66;4960341;28;20099;-57
2022/08/18 11:27:05;;;;;;;15.93;8.88;;;;;;;34.91;31.55;100299.03;4958913;28;20050;-61
2022/08/18 11:29:54;;;;;;;15.50;8.10;;;;;;;35.29;30.68;100291.72;4960236;28;20058;-62
2022/08/18 11:32:34;;;;;;;16.25;8.20;;;;;;;35.41;31.28;100292.38;4958522;28;20058;-61
2022/08/18 11:35:11;;;;;;;9.25;7.35;;;;;;;35.70;30.55;100296.41;4955439;28;20475;-60
2022/08/18 11:37:38;;;;;;;11.10;7.82;;;;;;;35.81;28.92;100291.84;4949532;28;20507;-60
2022/08/18 11:40:33;;;;;;;8.70;7.28;;;;;;;35.90;29.40;100292.16;4949458;28;20055;-58
2022/08/18 11:43:32;;;;;;;16.98;8.60;;;;;;;36.00;29.19;100287.56;4962811;28;20066;-61
2022/08/18 11:46:20;;;;;;;10.77;6.85;;;;;;;36.17;28.71;100286.56;4957947;28;20050;-61
2022/08/18 11:48:59;;;;;;;12.80;8.00;;;;;;;36.07;27.63;100287.34;4953271;28;20064;-61
2022/08/18 11:51:31;;;;;;;8.60;5.90;;;;;;;36.12;27.34;100281.88;4947666;28;20047;-61
2022/08/18 11:54:01;;;;;;;13.90;6.63;;;;;;;36.29;27.39;100278.91;4959493;28;20051;-61
2022/08/18 11:56:33;;;;;;;8.05;6.43;;;;;;;36.16;27.05;100279.41;4957137;28;20059;-61
2022/08/18 11:59:27;;;;;;;8.68;6.38;;;;;;;36.01;27.59;100275.50;4958572;28;20141;-58
2022/08/18 12:02:16;;;;;;;8.23;6.28;;;;;;;36.36;27.09;100276.75;4953379;28;20066;-61
2022/08/18 12:04:48;;;;;;;11.45;6.50;;;;;;;36.43;26.81;100276.47;4955639;28;20052;-59
2022/08/18 12:07:26;;;;;;;12.55;6.40;;;;;;;37.00;25.81;100281.03;4952724;28;20060;-59
2022/08/18 12:10:13;;;;;;;8.63;5.78;;;;;;;37.22;25.11;100278.00;4956275;28;20165;-62
2022/08/18 12:12:49;;;;;;;11.57;5.45;;;;;;;37.18;24.21;100279.66;4959311;28;20059;-62
2022/08/18 12:15:18;;;;;;;7.90;5.63;;;;;;;36.56;25.59;100280.66;4949327;28;20079;-62
2022/08/18 12:17:51;;;;;;;6.05;4.68;;;;;;;36.90;25.20;100272.75;4963135;28;20419;-62